createdAt,value
2022-10-31T00:02:02.180Z,10.39
2022-10-31T00:07:04.966Z,13.47
2022-10-31T00:12:07.830Z,13.22
2022-10-31T00:17:10.674Z,11.00
2022-10-31T00:22:13.491Z,11.67
2022-10-31T00:27:16.326Z,13.99
2022-10-31T00:32:19.495Z,11.88
2022-10-31T00:37:22.282Z,10.72
2022-10-31T00:42:25.057Z,13.58
2022-10-31T00:47:27.803Z,12.73
2022-10-31T00:52:30.634Z,10.65
2022-10-31T00:57:33.406Z,11.54
2022-10-31T01:02:36.286Z,13.25
2022-10-31T01:07:40.732Z,10.98
2022-10-31T01:12:46.019Z,11.46
2022-10-31T01:17:49.478Z,13.58
2022-10-31T01:22:52.281Z,11.26
2022-10-31T01:27:55.028Z,9.57
2022-10-31T01:32:58.384Z,10.45
2022-10-31T01:38:01.288Z,13.49
2022-10-31T01:43:04.043Z,12.47
2022-10-31T01:48:16.582Z,10.10
2022-10-31T01:53:24.343Z,10.80
2022-10-31T01:58:32.754Z,13.67
2022-10-31T02:03:35.640Z,13.03
2022-10-31T02:08:40.348Z,10.75
2022-10-31T02:13:43.219Z,11.21
2022-10-31T02:18:46.050Z,13.90
2022-10-31T02:24:07.676Z,12.13
2022-10-31T02:29:32.098Z,10.28
2022-10-31T02:34:45.330Z,11.96
2022-10-31T02:40:18.549Z,14.38
2022-10-31T02:45:33.967Z,12.07
2022-10-31T02:50:42.412Z,10.45
2022-10-31T02:55:54.518Z,12.31
2022-10-31T03:01:18.948Z,14.84
2022-10-31T03:06:26.341Z,13.04
2022-10-31T03:11:58.834Z,13.23
2022-10-31T03:17:06.773Z,15.68
2022-10-31T03:22:23.334Z,13.66
2022-10-31T03:27:30.898Z,13.77
2022-10-31T03:32:43.324Z,15.90
2022-10-31T03:37:48.898Z,13.86
2022-10-31T03:42:58.678Z,14.04
2022-10-31T03:48:02.377Z,16.00
2022-10-31T03:53:12.972Z,13.89
2022-10-31T03:58:26.819Z,14.08
2022-10-31T04:03:37.017Z,15.66
2022-10-31T04:08:45.733Z,13.36
2022-10-31T04:13:50.506Z,13.66
2022-10-31T04:18:53.391Z,15.74
2022-10-31T04:23:56.848Z,13.67
2022-10-31T04:28:59.621Z,12.21
2022-10-31T04:34:02.412Z,14.78
2022-10-31T04:39:05.186Z,15.30
2022-10-31T04:44:07.977Z,13.06
2022-10-31T04:49:10.763Z,13.45
2022-10-31T04:54:13.492Z,15.55
2022-10-31T04:59:16.260Z,13.35
2022-10-31T05:04:19.000Z,13.20
2022-10-31T05:09:21.720Z,15.43
2022-10-31T05:14:24.459Z,13.46
2022-10-31T05:19:27.215Z,11.65
2022-10-31T05:24:29.941Z,13.50
2022-10-31T05:29:34.555Z,15.30
2022-10-31T05:34:37.284Z,13.18
2022-10-31T05:39:40.029Z,13.28
2022-10-31T05:44:42.768Z,15.35
2022-10-31T05:49:45.560Z,13.29
2022-10-31T05:54:48.322Z,11.96
2022-10-31T05:59:55.029Z,14.58
2022-10-31T06:04:58.350Z,14.65
2022-10-31T06:10:02.052Z,12.30
2022-10-31T06:15:09.506Z,14.16
2022-10-31T06:20:12.830Z,14.84
2022-10-31T06:25:15.625Z,12.55
2022-10-31T06:30:18.581Z,14.00
2022-10-31T06:35:21.618Z,15.69
2022-10-31T06:40:24.631Z,13.60
2022-10-31T06:45:27.864Z,13.60
2022-10-31T06:50:30.580Z,16.06
2022-10-31T06:55:33.333Z,14.21
2022-10-31T07:00:36.051Z,14.05
2022-10-31T07:05:39.455Z,16.44
2022-10-31T07:10:43.873Z,14.98
2022-10-31T07:15:46.621Z,13.36
2022-10-31T07:20:49.675Z,15.64
2022-10-31T07:25:57.342Z,16.48
2022-10-31T07:31:00.160Z,14.33
2022-10-31T07:36:03.027Z,14.89
2022-10-31T07:41:05.927Z,17.21
2022-10-31T07:46:08.764Z,15.49
2022-10-31T07:51:11.531Z,13.90
2022-10-31T07:56:14.313Z,15.84
2022-10-31T08:01:17.139Z,17.51
2022-10-31T08:06:19.978Z,15.54
2022-10-31T08:11:22.791Z,15.23
2022-10-31T08:16:25.569Z,17.69
2022-10-31T08:21:28.349Z,16.21
2022-10-31T08:26:31.932Z,16.24
2022-10-31T08:31:37.670Z,18.27
2022-10-31T08:36:46.140Z,16.40
2022-10-31T08:41:48.958Z,15.12
2022-10-31T08:46:51.698Z,17.62
2022-10-31T08:51:54.497Z,18.37
2022-10-31T08:56:57.563Z,16.37
2022-10-31T09:02:00.495Z,16.82
2022-10-31T09:12:26.218Z,17.32
2022-10-31T09:17:30.235Z,15.94
2022-10-31T09:22:33.001Z,17.16
2022-10-31T09:27:35.803Z,19.22
2022-10-31T09:32:38.553Z,17.51
2022-10-31T09:37:41.298Z,16.38
2022-10-31T09:42:53.108Z,17.38
2022-10-31T09:48:26.729Z,19.33
2022-10-31T09:53:41.487Z,17.46
2022-10-31T09:58:50.655Z,16.46
2022-10-31T10:03:59.692Z,17.61
2022-10-31T10:09:02.975Z,19.84
2022-10-31T10:14:12.334Z,18.15
2022-10-31T10:19:20.821Z,17.02
2022-10-31T10:24:55.847Z,18.10
2022-10-31T10:30:12.242Z,19.83
2022-10-31T10:35:24.157Z,18.08
2022-10-31T10:40:29.202Z,17.04
2022-10-31T10:45:54.090Z,18.32
2022-10-31T10:50:57.797Z,20.16
2022-10-31T10:56:03.739Z,18.53
2022-10-31T11:06:26.511Z,20.68
2022-10-31T11:11:33.085Z,18.95
2022-10-31T11:16:46.840Z,17.95
2022-10-31T11:21:52.876Z,19.11
2022-10-31T11:27:14.302Z,20.83
2022-10-31T11:32:23.695Z,19.12
2022-10-31T11:37:33.050Z,17.97
2022-10-31T11:42:41.817Z,19.43
2022-10-31T11:47:55.299Z,20.89
2022-10-31T11:53:02.536Z,19.10
2022-10-31T11:58:06.211Z,18.26
2022-10-31T12:03:24.069Z,20.61
2022-10-31T12:08:31.605Z,20.28
2022-10-31T12:14:09.314Z,18.84
2022-10-31T12:19:21.245Z,17.96
2022-10-31T12:24:43.402Z,18.48
2022-10-31T12:29:52.864Z,20.56
2022-10-31T12:35:40.913Z,19.12
2022-10-31T12:41:03.081Z,18.15
2022-10-31T12:46:17.323Z,17.63
2022-10-31T12:52:13.228Z,19.08
2022-10-31T12:57:43.859Z,20.69
2022-10-31T13:02:58.100Z,19.11
2022-10-31T13:08:16.368Z,18.32
2022-10-31T13:13:28.446Z,18.79
2022-10-31T13:18:41.385Z,21.38
2022-10-31T13:23:51.034Z,20.00
2022-10-31T13:29:05.035Z,18.91
2022-10-31T13:34:19.848Z,18.27
2022-10-31T13:39:56.522Z,19.53
2022-10-31T13:45:13.702Z,20.98
2022-10-31T13:50:19.511Z,19.35
2022-10-31T13:55:37.488Z,18.43
2022-10-31T14:00:40.345Z,17.78
2022-10-31T14:05:43.299Z,19.05
2022-10-31T14:10:52.404Z,21.07
2022-10-31T14:16:05.343Z,19.36
2022-10-31T14:21:16.246Z,18.12
2022-10-31T14:26:27.674Z,17.39
2022-10-31T14:31:36.949Z,18.74
2022-10-31T14:37:13.977Z,20.98
2022-10-31T14:42:51.302Z,19.11
2022-10-31T14:48:28.102Z,17.84
2022-10-31T14:53:41.591Z,19.18
2022-10-31T14:58:47.429Z,20.59
2022-10-31T15:04:17.711Z,18.70
2022-10-31T15:09:29.055Z,17.44
2022-10-31T15:14:32.735Z,18.54
2022-10-31T15:19:37.492Z,20.71
2022-10-31T15:24:40.462Z,18.99
2022-10-31T15:29:50.679Z,17.62
2022-10-31T15:34:55.300Z,16.88
2022-10-31T15:40:13.404Z,19.24
2022-10-31T15:45:24.781Z,20.13
2022-10-31T15:50:40.161Z,18.09
2022-10-31T15:55:52.235Z,16.83
2022-10-31T16:01:06.816Z,17.88
2022-10-31T16:06:21.758Z,20.18
2022-10-31T16:11:38.492Z,18.30
2022-10-31T16:16:49.370Z,16.86
2022-10-31T16:22:21.061Z,17.78
2022-10-31T16:27:31.230Z,20.10
2022-10-31T16:32:53.790Z,18.19
2022-10-31T16:37:56.525Z,16.73
2022-10-31T16:43:01.636Z,17.58
2022-10-31T16:48:12.759Z,20.11
2022-10-31T16:53:16.929Z,18.48
2022-10-31T16:58:31.086Z,16.93
2022-10-31T17:03:34.203Z,17.89
2022-10-31T17:08:36.954Z,19.99
2022-10-31T17:13:39.783Z,18.17
2022-10-31T17:18:43.999Z,16.79
2022-10-31T17:23:46.924Z,17.76
2022-10-31T17:28:49.901Z,20.07
2022-10-31T17:33:58.425Z,18.32
2022-10-31T17:39:07.536Z,16.62
2022-10-31T17:44:11.679Z,17.43
2022-10-31T17:49:14.861Z,19.99
2022-10-31T17:54:22.905Z,18.66
2022-10-31T17:59:27.710Z,16.90
2022-10-31T18:04:30.498Z,18.73
2022-10-31T18:09:33.883Z,19.99
2022-10-31T18:14:36.964Z,17.87
2022-10-31T18:19:39.638Z,18.11
2022-10-31T18:24:42.368Z,20.23
2022-10-31T18:29:45.613Z,18.64
2022-10-31T18:34:48.368Z,17.07
2022-10-31T18:39:51.095Z,19.32
2022-10-31T18:44:53.858Z,19.67
2022-10-31T18:49:56.610Z,17.53
2022-10-31T18:54:59.352Z,17.88
2022-10-31T19:00:02.923Z,20.13
2022-10-31T19:05:06.000Z,18.49
2022-10-31T19:10:08.893Z,16.78
2022-10-31T19:15:11.653Z,18.70
2022-10-31T19:20:14.663Z,19.50
2022-10-31T19:25:17.462Z,17.33
2022-10-31T19:30:21.438Z,17.13
2022-10-31T19:35:24.219Z,19.70
2022-10-31T19:40:27.706Z,19.13
2022-10-31T19:45:31.443Z,17.00
2022-10-31T19:50:34.201Z,17.66
2022-10-31T19:55:40.209Z,19.99
2022-10-31T20:00:43.118Z,18.63
2022-10-31T20:05:46.722Z,17.02
2022-10-31T20:11:02.227Z,19.27
2022-10-31T20:16:08.761Z,19.39
2022-10-31T20:21:14.617Z,17.20
2022-10-31T20:26:19.633Z,17.66
2022-10-31T20:31:26.218Z,19.98
2022-10-31T20:36:29.737Z,18.53
2022-10-31T20:41:32.533Z,17.02
2022-10-31T20:46:35.639Z,19.31
2022-10-31T20:51:38.830Z,19.54
2022-10-31T20:56:41.581Z,17.34
2022-10-31T21:01:44.539Z,17.96
2022-10-31T21:06:49.598Z,19.97
2022-10-31T21:11:52.646Z,18.12
2022-10-31T21:16:55.384Z,16.94
2022-10-31T21:21:58.183Z,19.45
2022-10-31T21:27:02.718Z,19.42
2022-10-31T21:32:05.878Z,17.36
2022-10-31T21:37:08.607Z,17.77
2022-10-31T21:42:11.335Z,19.94
2022-10-31T21:47:14.618Z,18.40
2022-10-31T21:52:17.354Z,17.11
2022-10-31T21:57:20.099Z,19.63
2022-10-31T22:02:22.857Z,19.27
2022-10-31T22:07:25.587Z,17.17
2022-10-31T22:12:28.344Z,18.67
2022-10-31T22:17:31.110Z,19.67
2022-10-31T22:22:33.818Z,17.65
2022-10-31T22:27:38.716Z,18.22
2022-10-31T22:32:41.419Z,20.06
2022-10-31T22:37:44.164Z,18.08
2022-10-31T22:42:46.929Z,18.22
2022-10-31T22:47:49.691Z,20.11
2022-10-31T22:52:52.433Z,18.05
2022-10-31T22:57:55.277Z,17.72
2022-10-31T23:02:57.985Z,19.64
2022-10-31T23:08:01.045Z,19.09
2022-10-31T23:13:22.414Z,16.86
2022-10-31T23:18:48.388Z,18.91
2022-10-31T23:23:48.129Z,19.72
2022-10-31T23:28:50.900Z,17.52
2022-10-31T23:33:53.668Z,17.56
2022-10-31T23:38:56.388Z,19.77
2022-10-31T23:43:59.123Z,18.74
2022-10-31T23:49:01.991Z,17.09
2022-10-31T23:54:04.997Z,19.31
2022-10-31T23:59:08.093Z,19.35
